Terminal Aerodrome Forecast
Issued by NWS

Home | Current Version | Previous Version | Text Only | Print | Product List | Glossary On
Versions: 1 2 3 4 5 6 7 8 9 10 11 12 13 14 15
000
FTAK31 PAJN 200048 AAB
TAFAJN
TAF AMD
PAJN 200048Z 2001/2024 13010G16KT P6SM -SHRA FEW010 BKN040 OVC050
      TEMPO 2001/2003 5SM -SHRA BR FEW010 BKN030 OVC040
     FM200300 13016G22KT 6SM -SHRA BR SCT025 OVC035
     FM201200 10012KT P6SM -SHRA OVC050=

USA.gov is the U.S. government's official web portal to all federal, state and local government web resources and services.